sensor_id;sensor_type;location;lat;lon;timestamp;temperature;humidity
38464;DHT22;24243;51.956;5.902;2023-02-22T00:01:14;19.00;59.20
38464;DHT22;24243;51.956;5.902;2023-02-22T00:03:48;19.00;59.20
38464;DHT22;24243;51.956;5.902;2023-02-22T00:06:16;19.00;59.20
38464;DHT22;24243;51.956;5.902;2023-02-22T00:08:42;19.00;59.20
38464;DHT22;24243;51.956;5.902;2023-02-22T00:11:07;19.00;59.30
38464;DHT22;24243;51.956;5.902;2023-02-22T00:13:34;18.90;59.30
38464;DHT22;24243;51.956;5.902;2023-02-22T00:15:59;18.90;59.20
38464;DHT22;24243;51.956;5.902;2023-02-22T00:18:26;18.90;59.30
38464;DHT22;24243;51.956;5.902;2023-02-22T00:20:56;18.80;59.20
38464;DHT22;24243;51.956;5.902;2023-02-22T00:23:25;18.90;59.30
38464;DHT22;24243;51.956;5.902;2023-02-22T00:25:53;18.90;59.20
38464;DHT22;24243;51.956;5.902;2023-02-22T00:28:19;18.90;59.20
38464;DHT22;24243;51.956;5.902;2023-02-22T00:30:44;18.90;59.20
38464;DHT22;24243;51.956;5.902;2023-02-22T00:33:11;18.90;59.20
38464;DHT22;24243;51.956;5.902;2023-02-22T00:35:37;18.80;59.10
38464;DHT22;24243;51.956;5.902;2023-02-22T00:38:03;18.80;59.10
38464;DHT22;24243;51.956;5.902;2023-02-22T00:40:29;18.80;59.10
38464;DHT22;24243;51.956;5.902;2023-02-22T00:42:59;18.80;59.10
38464;DHT22;24243;51.956;5.902;2023-02-22T00:45:25;18.80;59.10
38464;DHT22;24243;51.956;5.902;2023-02-22T00:47:51;18.80;59.10
38464;DHT22;24243;51.956;5.902;2023-02-22T00:50:19;18.80;59.20
38464;DHT22;24243;51.956;5.902;2023-02-22T00:52:45;18.80;59.20
38464;DHT22;24243;51.956;5.902;2023-02-22T00:55:19;18.70;59.20
38464;DHT22;24243;51.956;5.902;2023-02-22T00:57:45;18.80;59.20
38464;DHT22;24243;51.956;5.902;2023-02-22T01:00:15;18.70;59.20
38464;DHT22;24243;51.956;5.902;2023-02-22T01:02:41;18.80;59.20
38464;DHT22;24243;51.956;5.902;2023-02-22T01:05:09;18.70;59.20
38464;DHT22;24243;51.956;5.902;2023-02-22T01:07:37;18.70;59.20
38464;DHT22;24243;51.956;5.902;2023-02-22T01:10:03;18.70;59.20
38464;DHT22;24243;51.956;5.902;2023-02-22T01:12:28;18.70;59.20
38464;DHT22;24243;51.956;5.902;2023-02-22T01:14:54;18.70;59.20
38464;DHT22;24243;51.956;5.902;2023-02-22T01:17:24;18.70;59.20
38464;DHT22;24243;51.956;5.902;2023-02-22T01:19:50;18.70;59.20
38464;DHT22;24243;51.956;5.902;2023-02-22T01:22:17;18.70;59.20
38464;DHT22;24243;51.956;5.902;2023-02-22T01:24:43;18.70;59.20
38464;DHT22;24243;51.956;5.902;2023-02-22T01:27:08;18.70;59.20
38464;DHT22;24243;51.956;5.902;2023-02-22T01:29:35;18.70;59.20
38464;DHT22;24243;51.956;5.902;2023-02-22T01:32:00;18.70;59.20
38464;DHT22;24243;51.956;5.902;2023-02-22T01:34:26;18.60;59.20
38464;DHT22;24243;51.956;5.902;2023-02-22T01:36:52;18.60;59.20
38464;DHT22;24243;51.956;5.902;2023-02-22T01:39:17;18.60;59.20
38464;DHT22;24243;51.956;5.902;2023-02-22T01:41:44;18.60;59.20
38464;DHT22;24243;51.956;5.902;2023-02-22T01:47:06;18.60;59.20
38464;DHT22;24243;51.956;5.902;2023-02-22T01:49:35;18.60;59.20
38464;DHT22;24243;51.956;5.902;2023-02-22T01:52:02;18.60;59.20
38464;DHT22;24243;51.956;5.902;2023-02-22T01:54:34;18.60;59.20
38464;DHT22;24243;51.956;5.902;2023-02-22T01:57:05;18.60;59.20
38464;DHT22;24243;51.956;5.902;2023-02-22T01:59:32;18.60;59.20
38464;DHT22;24243;51.956;5.902;2023-02-22T02:01:59;18.60;59.20
38464;DHT22;24243;51.956;5.902;2023-02-22T02:04:25;18.60;59.20
38464;DHT22;24243;51.956;5.902;2023-02-22T02:06:51;18.50;59.20
38464;DHT22;24243;51.956;5.902;2023-02-22T02:11:47;18.50;59.10
38464;DHT22;24243;51.956;5.902;2023-02-22T02:14:13;18.50;59.20
38464;DHT22;24243;51.956;5.902;2023-02-22T02:16:41;18.50;59.20
38464;DHT22;24243;51.956;5.902;2023-02-22T02:19:56;18.50;59.20
38464;DHT22;24243;51.956;5.902;2023-02-22T02:22:16;18.50;59.20
38464;DHT22;24243;51.956;5.902;2023-02-22T02:27:21;18.50;59.20
38464;DHT22;24243;51.956;5.902;2023-02-22T02:32:43;18.50;59.80
38464;DHT22;24243;51.956;5.902;2023-02-22T02:35:11;18.50;59.20
38464;DHT22;24243;51.956;5.902;2023-02-22T02:40:14;18.50;59.20
38464;DHT22;24243;51.956;5.902;2023-02-22T02:42:49;18.50;59.20
38464;DHT22;24243;51.956;5.902;2023-02-22T02:45:20;18.40;59.20
38464;DHT22;24243;51.956;5.902;2023-02-22T02:47:49;18.40;59.20
38464;DHT22;24243;51.956;5.902;2023-02-22T02:50:23;18.40;59.20
38464;DHT22;24243;51.956;5.902;2023-02-22T02:52:50;18.40;59.20
38464;DHT22;24243;51.956;5.902;2023-02-22T02:55:17;18.40;59.20
38464;DHT22;24243;51.956;5.902;2023-02-22T02:57:43;18.40;59.20
38464;DHT22;24243;51.956;5.902;2023-02-22T03:00:09;18.40;59.20
38464;DHT22;24243;51.956;5.902;2023-02-22T03:05:24;18.40;59.20
38464;DHT22;24243;51.956;5.902;2023-02-22T03:21:13;18.30;59.10
38464;DHT22;24243;51.956;5.902;2023-02-22T03:23:54;18.30;59.10
38464;DHT22;24243;51.956;5.902;2023-02-22T03:26:32;18.30;59.10
38464;DHT22;24243;51.956;5.902;2023-02-22T03:28:58;18.30;59.10
38464;DHT22;24243;51.956;5.902;2023-02-22T03:31:30;18.30;59.10
38464;DHT22;24243;51.956;5.902;2023-02-22T03:33:59;18.30;59.20
38464;DHT22;24243;51.956;5.902;2023-02-22T03:36:28;18.30;59.10
38464;DHT22;24243;51.956;5.902;2023-02-22T03:38:54;18.30;59.10
38464;DHT22;24243;51.956;5.902;2023-02-22T03:41:21;18.30;59.20
38464;DHT22;24243;51.956;5.902;2023-02-22T03:43:54;18.30;59.20
38464;DHT22;24243;51.956;5.902;2023-02-22T03:46:23;18.30;59.10
38464;DHT22;24243;51.956;5.902;2023-02-22T03:48:54;18.30;59.10
38464;DHT22;24243;51.956;5.902;2023-02-22T03:51:24;18.30;59.10
38464;DHT22;24243;51.956;5.902;2023-02-22T03:53:50;18.30;59.20
38464;DHT22;24243;51.956;5.902;2023-02-22T03:56:21;18.30;59.10
38464;DHT22;24243;51.956;5.902;2023-02-22T03:58:47;18.30;59.20
38464;DHT22;24243;51.956;5.902;2023-02-22T04:01:13;18.30;59.20
38464;DHT22;24243;51.956;5.902;2023-02-22T04:03:39;18.20;59.10
38464;DHT22;24243;51.956;5.902;2023-02-22T04:06:06;18.30;59.20
38464;DHT22;24243;51.956;5.902;2023-02-22T04:08:32;18.20;59.10
38464;DHT22;24243;51.956;5.902;2023-02-22T04:10:57;18.20;59.10
38464;DHT22;24243;51.956;5.902;2023-02-22T04:13:23;18.20;59.10
38464;DHT22;24243;51.956;5.902;2023-02-22T04:15:48;18.20;59.10
38464;DHT22;24243;51.956;5.902;2023-02-22T04:18:14;18.20;59.10
38464;DHT22;24243;51.956;5.902;2023-02-22T04:20:40;18.20;59.10
38464;DHT22;24243;51.956;5.902;2023-02-22T04:23:05;18.20;59.10
38464;DHT22;24243;51.956;5.902;2023-02-22T04:25:31;18.20;59.10
38464;DHT22;24243;51.956;5.902;2023-02-22T04:27:57;18.20;59.10
38464;DHT22;24243;51.956;5.902;2023-02-22T04:30:22;18.20;59.10
38464;DHT22;24243;51.956;5.902;2023-02-22T04:32:48;18.20;59.10
38464;DHT22;24243;51.956;5.902;2023-02-22T04:35:13;18.20;59.10
38464;DHT22;24243;51.956;5.902;2023-02-22T04:37:39;18.20;59.10
38464;DHT22;24243;51.956;5.902;2023-02-22T04:40:05;18.20;59.10
38464;DHT22;24243;51.956;5.902;2023-02-22T04:42:34;18.20;59.10
38464;DHT22;24243;51.956;5.902;2023-02-22T04:45:00;18.20;59.10
38464;DHT22;24243;51.956;5.902;2023-02-22T04:47:26;18.20;59.10
38464;DHT22;24243;51.956;5.902;2023-02-22T04:49:51;18.20;59.10
38464;DHT22;24243;51.956;5.902;2023-02-22T04:52:17;18.10;59.10
38464;DHT22;24243;51.956;5.902;2023-02-22T04:54:42;18.10;59.10
38464;DHT22;24243;51.956;5.902;2023-02-22T04:57:08;18.20;59.10
38464;DHT22;24243;51.956;5.902;2023-02-22T04:59:34;18.10;59.10
38464;DHT22;24243;51.956;5.902;2023-02-22T05:01:59;18.10;59.10
38464;DHT22;24243;51.956;5.902;2023-02-22T05:04:25;18.10;59.10
38464;DHT22;24243;51.956;5.902;2023-02-22T05:06:50;18.10;59.10
38464;DHT22;24243;51.956;5.902;2023-02-22T05:09:16;18.10;59.00
38464;DHT22;24243;51.956;5.902;2023-02-22T05:11:42;18.10;59.10
38464;DHT22;24243;51.956;5.902;2023-02-22T05:14:07;18.10;59.10
38464;DHT22;24243;51.956;5.902;2023-02-22T05:16:33;18.10;59.70
38464;DHT22;24243;51.956;5.902;2023-02-22T05:18:58;18.10;59.10
38464;DHT22;24243;51.956;5.902;2023-02-22T05:21:24;18.10;59.10
38464;DHT22;24243;51.956;5.902;2023-02-22T05:23:50;18.10;59.10
38464;DHT22;24243;51.956;5.902;2023-02-22T05:26:15;18.10;59.10
38464;DHT22;24243;51.956;5.902;2023-02-22T05:28:41;18.10;59.10
38464;DHT22;24243;51.956;5.902;2023-02-22T05:31:06;18.10;59.10
38464;DHT22;24243;51.956;5.902;2023-02-22T05:33:32;18.10;59.00
38464;DHT22;24243;51.956;5.902;2023-02-22T05:35:57;18.10;59.00
38464;DHT22;24243;51.956;5.902;2023-02-22T05:38:23;18.10;59.00
38464;DHT22;24243;51.956;5.902;2023-02-22T05:40:49;18.10;59.00
38464;DHT22;24243;51.956;5.902;2023-02-22T05:43:15;18.10;59.00
38464;DHT22;24243;51.956;5.902;2023-02-22T05:45:40;18.10;59.00
38464;DHT22;24243;51.956;5.902;2023-02-22T05:48:06;18.10;59.00
38464;DHT22;24243;51.956;5.902;2023-02-22T05:50:32;18.00;59.00
38464;DHT22;24243;51.956;5.902;2023-02-22T05:52:58;18.10;59.10
38464;DHT22;24243;51.956;5.902;2023-02-22T05:55:24;18.00;59.00
38464;DHT22;24243;51.956;5.902;2023-02-22T05:57:50;18.00;59.00
38464;DHT22;24243;51.956;5.902;2023-02-22T06:00:26;18.00;59.00
38464;DHT22;24243;51.956;5.902;2023-02-22T06:02:53;18.00;59.00
38464;DHT22;24243;51.956;5.902;2023-02-22T06:05:18;18.00;59.00
38464;DHT22;24243;51.956;5.902;2023-02-22T06:07:44;18.00;59.00
38464;DHT22;24243;51.956;5.902;2023-02-22T06:10:10;18.00;59.00
38464;DHT22;24243;51.956;5.902;2023-02-22T06:12:35;18.00;59.00
38464;DHT22;24243;51.956;5.902;2023-02-22T06:15:01;18.00;59.00
38464;DHT22;24243;51.956;5.902;2023-02-22T06:17:27;18.00;59.00
38464;DHT22;24243;51.956;5.902;2023-02-22T06:19:52;18.00;59.00
38464;DHT22;24243;51.956;5.902;2023-02-22T06:22:18;18.00;59.00
38464;DHT22;24243;51.956;5.902;2023-02-22T06:24:44;18.00;59.00
38464;DHT22;24243;51.956;5.902;2023-02-22T06:27:10;18.00;59.00
38464;DHT22;24243;51.956;5.902;2023-02-22T06:29:35;18.00;59.00
38464;DHT22;24243;51.956;5.902;2023-02-22T06:32:01;18.00;59.00
38464;DHT22;24243;51.956;5.902;2023-02-22T06:34:26;18.00;59.00
38464;DHT22;24243;51.956;5.902;2023-02-22T06:36:52;18.00;59.00
38464;DHT22;24243;51.956;5.902;2023-02-22T06:39:18;18.00;59.00
38464;DHT22;24243;51.956;5.902;2023-02-22T06:41:44;17.90;59.00
38464;DHT22;24243;51.956;5.902;2023-02-22T06:44:11;17.90;59.00
38464;DHT22;24243;51.956;5.902;2023-02-22T06:46:36;17.90;59.00
38464;DHT22;24243;51.956;5.902;2023-02-22T06:49:02;17.90;59.00
38464;DHT22;24243;51.956;5.902;2023-02-22T06:51:28;17.90;59.10
38464;DHT22;24243;51.956;5.902;2023-02-22T06:53:54;17.90;59.10
38464;DHT22;24243;51.956;5.902;2023-02-22T06:56:19;17.90;59.10
38464;DHT22;24243;51.956;5.902;2023-02-22T06:58:45;17.90;59.70
38464;DHT22;24243;51.956;5.902;2023-02-22T07:01:11;17.80;59.10
38464;DHT22;24243;51.956;5.902;2023-02-22T07:03:37;17.80;59.10
38464;DHT22;24243;51.956;5.902;2023-02-22T07:06:06;17.90;59.10
38464;DHT22;24243;51.956;5.902;2023-02-22T07:08:31;17.80;59.00
38464;DHT22;24243;51.956;5.902;2023-02-22T07:10:57;17.90;59.10
38464;DHT22;24243;51.956;5.902;2023-02-22T07:13:23;17.90;59.00
38464;DHT22;24243;51.956;5.902;2023-02-22T07:15:48;17.90;59.00
38464;DHT22;24243;51.956;5.902;2023-02-22T07:18:14;17.90;59.00
38464;DHT22;24243;51.956;5.902;2023-02-22T07:20:40;17.90;58.90
38464;DHT22;24243;51.956;5.902;2023-02-22T07:23:06;17.90;58.90
38464;DHT22;24243;51.956;5.902;2023-02-22T07:25:32;17.90;58.90
38464;DHT22;24243;51.956;5.902;2023-02-22T07:27:58;17.80;58.90
38464;DHT22;24243;51.956;5.902;2023-02-22T07:30:27;17.90;58.90
38464;DHT22;24243;51.956;5.902;2023-02-22T07:32:59;17.80;58.80
38464;DHT22;24243;51.956;5.902;2023-02-22T07:35:25;17.80;58.80
38464;DHT22;24243;51.956;5.902;2023-02-22T07:37:51;17.80;59.40
38464;DHT22;24243;51.956;5.902;2023-02-22T07:40:17;17.80;58.80
38464;DHT22;24243;51.956;5.902;2023-02-22T07:42:50;17.80;58.90
38464;DHT22;24243;51.956;5.902;2023-02-22T07:45:15;17.80;58.80
38464;DHT22;24243;51.956;5.902;2023-02-22T07:47:41;17.80;58.80
38464;DHT22;24243;51.956;5.902;2023-02-22T07:50:06;17.80;58.80
38464;DHT22;24243;51.956;5.902;2023-02-22T07:52:32;17.80;58.80
38464;DHT22;24243;51.956;5.902;2023-02-22T07:54:58;17.80;58.80
38464;DHT22;24243;51.956;5.902;2023-02-22T07:57:24;17.80;58.80
38464;DHT22;24243;51.956;5.902;2023-02-22T07:59:50;17.80;58.80
38464;DHT22;24243;51.956;5.902;2023-02-22T08:02:16;17.80;58.80
38464;DHT22;24243;51.956;5.902;2023-02-22T08:04:42;17.80;58.80
38464;DHT22;24243;51.956;5.902;2023-02-22T08:07:07;17.80;58.80
38464;DHT22;24243;51.956;5.902;2023-02-22T08:09:33;17.80;58.80
38464;DHT22;24243;51.956;5.902;2023-02-22T08:11:58;17.80;58.80
38464;DHT22;24243;51.956;5.902;2023-02-22T08:14:24;17.80;58.80
38464;DHT22;24243;51.956;5.902;2023-02-22T08:16:49;17.80;58.80
38464;DHT22;24243;51.956;5.902;2023-02-22T08:19:15;17.80;58.80
38464;DHT22;24243;51.956;5.902;2023-02-22T08:21:41;17.80;58.80
38464;DHT22;24243;51.956;5.902;2023-02-22T08:24:06;17.80;58.80
38464;DHT22;24243;51.956;5.902;2023-02-22T08:26:32;17.70;58.80
38464;DHT22;24243;51.956;5.902;2023-02-22T08:28:57;17.80;58.80
38464;DHT22;24243;51.956;5.902;2023-02-22T08:31:23;17.80;58.90
38464;DHT22;24243;51.956;5.902;2023-02-22T08:33:48;17.80;58.90
38464;DHT22;24243;51.956;5.902;2023-02-22T08:36:14;17.70;58.80
38464;DHT22;24243;51.956;5.902;2023-02-22T08:38:40;17.70;58.80
38464;DHT22;24243;51.956;5.902;2023-02-22T08:41:06;17.70;58.80
38464;DHT22;24243;51.956;5.902;2023-02-22T08:43:31;17.80;58.90
38464;DHT22;24243;51.956;5.902;2023-02-22T08:45:57;17.80;58.80
38464;DHT22;24243;51.956;5.902;2023-02-22T08:48:23;17.80;58.80
38464;DHT22;24243;51.956;5.902;2023-02-22T08:50:48;17.70;58.80
38464;DHT22;24243;51.956;5.902;2023-02-22T08:53:14;17.70;58.80
38464;DHT22;24243;51.956;5.902;2023-02-22T08:55:40;17.80;58.80
38464;DHT22;24243;51.956;5.902;2023-02-22T08:58:06;17.70;58.70
38464;DHT22;24243;51.956;5.902;2023-02-22T09:00:37;17.80;58.80
38464;DHT22;24243;51.956;5.902;2023-02-22T09:03:03;17.80;58.70
38464;DHT22;24243;51.956;5.902;2023-02-22T09:05:29;17.80;58.70
38464;DHT22;24243;51.956;5.902;2023-02-22T09:07:55;17.80;58.80
38464;DHT22;24243;51.956;5.902;2023-02-22T09:10:22;17.80;58.70
38464;DHT22;24243;51.956;5.902;2023-02-22T09:12:49;17.80;58.70
38464;DHT22;24243;51.956;5.902;2023-02-22T09:15:15;17.80;58.70
38464;DHT22;24243;51.956;5.902;2023-02-22T09:17:41;17.80;58.60
38464;DHT22;24243;51.956;5.902;2023-02-22T09:20:06;17.80;58.60
38464;DHT22;24243;51.956;5.902;2023-02-22T09:22:32;17.80;58.60
38464;DHT22;24243;51.956;5.902;2023-02-22T09:24:58;17.80;58.60
38464;DHT22;24243;51.956;5.902;2023-02-22T09:27:24;17.90;58.60
38464;DHT22;24243;51.956;5.902;2023-02-22T09:29:52;17.90;58.60
38464;DHT22;24243;51.956;5.902;2023-02-22T09:32:18;17.90;58.50
38464;DHT22;24243;51.956;5.902;2023-02-22T09:34:45;17.90;58.40
38464;DHT22;24243;51.956;5.902;2023-02-22T09:37:11;17.90;58.40
38464;DHT22;24243;51.956;5.902;2023-02-22T09:39:37;18.00;58.40
38464;DHT22;24243;51.956;5.902;2023-02-22T09:45:15;18.10;58.30
38464;DHT22;24243;51.956;5.902;2023-02-22T09:47:20;18.10;58.10
38464;DHT22;24243;51.956;5.902;2023-02-22T09:52:16;18.20;58.10
38464;DHT22;24243;51.956;5.902;2023-02-22T09:54:44;18.20;58.00
38464;DHT22;24243;51.956;5.902;2023-02-22T09:57:21;18.20;57.90
38464;DHT22;24243;51.956;5.902;2023-02-22T09:59:58;18.30;58.00
38464;DHT22;24243;51.956;5.902;2023-02-22T10:02:27;18.30;57.90
38464;DHT22;24243;51.956;5.902;2023-02-22T10:05:02;18.30;57.90
38464;DHT22;24243;51.956;5.902;2023-02-22T10:07:39;18.30;57.90
38464;DHT22;24243;51.956;5.902;2023-02-22T10:10:13;18.30;57.90
38464;DHT22;24243;51.956;5.902;2023-02-22T10:17:39;18.30;58.00
38464;DHT22;24243;51.956;5.902;2023-02-22T10:25:23;18.40;58.00
38464;DHT22;24243;51.956;5.902;2023-02-22T10:27:56;18.40;58.00
38464;DHT22;24243;51.956;5.902;2023-02-22T10:30:27;18.40;57.90
38464;DHT22;24243;51.956;5.902;2023-02-22T10:32:57;18.40;57.80
38464;DHT22;24243;51.956;5.902;2023-02-22T10:35:25;18.50;57.80
38464;DHT22;24243;51.956;5.902;2023-02-22T10:37:53;18.60;57.70
38464;DHT22;24243;51.956;5.902;2023-02-22T10:40:21;18.60;57.60
38464;DHT22;24243;51.956;5.902;2023-02-22T10:42:50;18.70;57.60
38464;DHT22;24243;51.956;5.902;2023-02-22T10:45:26;18.60;57.50
38464;DHT22;24243;51.956;5.902;2023-02-22T10:47:53;18.70;57.50
38464;DHT22;24243;51.956;5.902;2023-02-22T10:50:19;18.70;57.40
38464;DHT22;24243;51.956;5.902;2023-02-22T10:52:46;18.80;57.40
38464;DHT22;24243;51.956;5.902;2023-02-22T10:55:12;18.90;57.40
38464;DHT22;24243;51.956;5.902;2023-02-22T10:57:38;18.90;57.30
38464;DHT22;24243;51.956;5.902;2023-02-22T11:00:17;18.90;57.30
38464;DHT22;24243;51.956;5.902;2023-02-22T11:02:48;19.00;57.30
38464;DHT22;24243;51.956;5.902;2023-02-22T11:05:25;19.00;57.20
38464;DHT22;24243;51.956;5.902;2023-02-22T11:07:52;19.00;57.20
38464;DHT22;24243;51.956;5.902;2023-02-22T11:10:37;19.10;57.10
38464;DHT22;24243;51.956;5.902;2023-02-22T11:13:15;19.10;57.10
38464;DHT22;24243;51.956;5.902;2023-02-22T11:15:41;19.20;57.10
38464;DHT22;24243;51.956;5.902;2023-02-22T11:18:15;19.20;57.10
38464;DHT22;24243;51.956;5.902;2023-02-22T11:20:45;19.20;57.10
38464;DHT22;24243;51.956;5.902;2023-02-22T11:23:11;19.30;57.00
38464;DHT22;24243;51.956;5.902;2023-02-22T11:25:38;19.30;57.00
38464;DHT22;24243;51.956;5.902;2023-02-22T11:28:12;19.30;56.90
38464;DHT22;24243;51.956;5.902;2023-02-22T11:30:39;19.40;56.90
38464;DHT22;24243;51.956;5.902;2023-02-22T11:33:20;19.40;56.80
38464;DHT22;24243;51.956;5.902;2023-02-22T11:35:58;19.40;56.80
38464;DHT22;24243;51.956;5.902;2023-02-22T11:38:25;19.40;56.80
38464;DHT22;24243;51.956;5.902;2023-02-22T11:43:47;19.50;56.80
38464;DHT22;24243;51.956;5.902;2023-02-22T11:46:17;19.50;56.80
38464;DHT22;24243;51.956;5.902;2023-02-22T11:48:45;19.50;56.90
38464;DHT22;24243;51.956;5.902;2023-02-22T11:56:26;19.50;57.10
38464;DHT22;24243;51.956;5.902;2023-02-22T11:59:06;19.50;57.10
38464;DHT22;24243;51.956;5.902;2023-02-22T12:01:42;19.50;57.20
38464;DHT22;24243;51.956;5.902;2023-02-22T12:09:36;19.40;57.30
38464;DHT22;24243;51.956;5.902;2023-02-22T12:14:37;19.40;57.40
38464;DHT22;24243;51.956;5.902;2023-02-22T12:19:32;19.40;57.50
38464;DHT22;24243;51.956;5.902;2023-02-22T12:22:06;19.40;57.50
38464;DHT22;24243;51.956;5.902;2023-02-22T12:24:37;19.40;57.50
38464;DHT22;24243;51.956;5.902;2023-02-22T12:27:10;19.50;57.50
38464;DHT22;24243;51.956;5.902;2023-02-22T12:29:47;19.40;57.40
38464;DHT22;24243;51.956;5.902;2023-02-22T12:34:46;19.40;57.40
38464;DHT22;24243;51.956;5.902;2023-02-22T12:39:41;19.40;57.40
38464;DHT22;24243;51.956;5.902;2023-02-22T12:42:11;19.50;57.50
38464;DHT22;24243;51.956;5.902;2023-02-22T12:44:38;19.40;57.50
38464;DHT22;24243;51.956;5.902;2023-02-22T12:47:05;19.40;57.50
38464;DHT22;24243;51.956;5.902;2023-02-22T12:49:51;19.40;57.60
38464;DHT22;24243;51.956;5.902;2023-02-22T12:52:23;19.40;57.60
38464;DHT22;24243;51.956;5.902;2023-02-22T12:54:54;19.40;57.60
38464;DHT22;24243;51.956;5.902;2023-02-22T13:00:20;19.40;57.70
38464;DHT22;24243;51.956;5.902;2023-02-22T13:03:00;19.30;57.60
38464;DHT22;24243;51.956;5.902;2023-02-22T13:05:27;19.40;57.70
38464;DHT22;24243;51.956;5.902;2023-02-22T13:08:15;19.30;57.70
38464;DHT22;24243;51.956;5.902;2023-02-22T13:22:07;19.20;57.90
38464;DHT22;24243;51.956;5.902;2023-02-22T13:27:19;19.20;58.00
38464;DHT22;24243;51.956;5.902;2023-02-22T13:29:51;19.20;58.00
38464;DHT22;24243;51.956;5.902;2023-02-22T13:53:11;19.00;58.00
38464;DHT22;24243;51.956;5.902;2023-02-22T13:55:38;19.00;58.10
38464;DHT22;24243;51.956;5.902;2023-02-22T13:58:06;19.00;58.00
38464;DHT22;24243;51.956;5.902;2023-02-22T14:00:43;19.00;58.00
38464;DHT22;24243;51.956;5.902;2023-02-22T14:08:07;19.00;57.80
38464;DHT22;24243;51.956;5.902;2023-02-22T14:11:02;19.10;57.80
38464;DHT22;24243;51.956;5.902;2023-02-22T14:13:31;19.10;57.80
38464;DHT22;24243;51.956;5.902;2023-02-22T14:18:40;19.20;57.70
38464;DHT22;24243;51.956;5.902;2023-02-22T14:21:09;19.20;57.70
38464;DHT22;24243;51.956;5.902;2023-02-22T14:31:14;19.20;57.60
38464;DHT22;24243;51.956;5.902;2023-02-22T14:36:22;19.30;57.60
38464;DHT22;24243;51.956;5.902;2023-02-22T14:38:49;19.30;57.60
38464;DHT22;24243;51.956;5.902;2023-02-22T14:41:20;19.30;57.50
38464;DHT22;24243;51.956;5.902;2023-02-22T14:43:51;19.30;57.50
38464;DHT22;24243;51.956;5.902;2023-02-22T14:46:18;19.30;57.50
38464;DHT22;24243;51.956;5.902;2023-02-22T14:48:46;19.40;57.50
38464;DHT22;24243;51.956;5.902;2023-02-22T14:51:37;19.40;57.50
38464;DHT22;24243;51.956;5.902;2023-02-22T14:54:05;19.40;57.40
38464;DHT22;24243;51.956;5.902;2023-02-22T14:56:36;19.40;57.50
38464;DHT22;24243;51.956;5.902;2023-02-22T14:59:24;19.50;57.40
38464;DHT22;24243;51.956;5.902;2023-02-22T15:02:12;19.50;57.30
38464;DHT22;24243;51.956;5.902;2023-02-22T15:04:37;19.50;57.30
38464;DHT22;24243;51.956;5.902;2023-02-22T15:07:07;19.60;57.40
38464;DHT22;24243;51.956;5.902;2023-02-22T15:09:33;19.60;57.50
38464;DHT22;24243;51.956;5.902;2023-02-22T15:14:27;19.60;57.40
38464;DHT22;24243;51.956;5.902;2023-02-22T15:16:55;19.60;57.30
38464;DHT22;24243;51.956;5.902;2023-02-22T15:19:26;19.60;57.30
38464;DHT22;24243;51.956;5.902;2023-02-22T15:21:53;19.60;57.30
38464;DHT22;24243;51.956;5.902;2023-02-22T15:24:26;19.60;57.30
38464;DHT22;24243;51.956;5.902;2023-02-22T15:26:52;19.60;57.30
38464;DHT22;24243;51.956;5.902;2023-02-22T15:29:20;19.60;57.30
38464;DHT22;24243;51.956;5.902;2023-02-22T15:31:47;19.60;57.30
38464;DHT22;24243;51.956;5.902;2023-02-22T15:34:22;19.60;57.40
38464;DHT22;24243;51.956;5.902;2023-02-22T15:36:50;19.60;57.40
38464;DHT22;24243;51.956;5.902;2023-02-22T15:42:01;19.60;57.40
38464;DHT22;24243;51.956;5.902;2023-02-22T15:44:27;19.60;57.40
38464;DHT22;24243;51.956;5.902;2023-02-22T15:46:53;19.60;57.50
38464;DHT22;24243;51.956;5.902;2023-02-22T15:49:21;19.60;57.50
38464;DHT22;24243;51.956;5.902;2023-02-22T15:51:50;19.60;57.50
38464;DHT22;24243;51.956;5.902;2023-02-22T15:54:24;19.60;57.50
38464;DHT22;24243;51.956;5.902;2023-02-22T15:56:50;19.60;57.60
38464;DHT22;24243;51.956;5.902;2023-02-22T15:59:20;19.60;57.60
38464;DHT22;24243;51.956;5.902;2023-02-22T16:01:47;19.60;57.60
38464;DHT22;24243;51.956;5.902;2023-02-22T16:04:24;19.60;57.70
38464;DHT22;24243;51.956;5.902;2023-02-22T16:06:51;19.60;57.70
38464;DHT22;24243;51.956;5.902;2023-02-22T16:09:22;19.50;57.70
38464;DHT22;24243;51.956;5.902;2023-02-22T16:11:50;19.50;57.70
38464;DHT22;24243;51.956;5.902;2023-02-22T16:20:00;19.50;57.70
38464;DHT22;24243;51.956;5.902;2023-02-22T16:22:28;19.60;57.70
38464;DHT22;24243;51.956;5.902;2023-02-22T16:24:53;19.60;57.70
38464;DHT22;24243;51.956;5.902;2023-02-22T16:27:39;19.60;57.60
38464;DHT22;24243;51.956;5.902;2023-02-22T16:32:46;19.60;57.60
38464;DHT22;24243;51.956;5.902;2023-02-22T16:35:12;19.60;57.60
38464;DHT22;24243;51.956;5.902;2023-02-22T16:37:47;19.60;57.60
38464;DHT22;24243;51.956;5.902;2023-02-22T16:40:24;19.60;57.60
38464;DHT22;24243;51.956;5.902;2023-02-22T16:42:50;19.70;57.70
38464;DHT22;24243;51.956;5.902;2023-02-22T16:45:19;19.60;57.60
38464;DHT22;24243;51.956;5.902;2023-02-22T16:47:45;19.60;57.70
38464;DHT22;24243;51.956;5.902;2023-02-22T16:50:11;19.60;57.60
38464;DHT22;24243;51.956;5.902;2023-02-22T16:52:37;19.70;57.70
38464;DHT22;24243;51.956;5.902;2023-02-22T16:55:03;19.70;57.70
38464;DHT22;24243;51.956;5.902;2023-02-22T16:57:29;19.70;57.70
38464;DHT22;24243;51.956;5.902;2023-02-22T16:59:55;19.70;57.80
38464;DHT22;24243;51.956;5.902;2023-02-22T17:02:21;19.70;57.80
38464;DHT22;24243;51.956;5.902;2023-02-22T17:04:46;19.60;57.80
38464;DHT22;24243;51.956;5.902;2023-02-22T17:07:18;19.60;57.80
38464;DHT22;24243;51.956;5.902;2023-02-22T17:09:45;19.60;57.80
38464;DHT22;24243;51.956;5.902;2023-02-22T17:12:10;19.60;57.90
38464;DHT22;24243;51.956;5.902;2023-02-22T17:14:36;19.70;58.00
38464;DHT22;24243;51.956;5.902;2023-02-22T17:17:02;19.60;57.90
38464;DHT22;24243;51.956;5.902;2023-02-22T17:19:27;19.60;58.00
38464;DHT22;24243;51.956;5.902;2023-02-22T17:21:53;19.60;58.00
38464;DHT22;24243;51.956;5.902;2023-02-22T17:24:20;19.60;58.00
38464;DHT22;24243;51.956;5.902;2023-02-22T17:26:47;19.60;57.90
38464;DHT22;24243;51.956;5.902;2023-02-22T17:29:13;19.70;58.00
38464;DHT22;24243;51.956;5.902;2023-02-22T17:31:39;19.70;57.90
38464;DHT22;24243;51.956;5.902;2023-02-22T17:34:05;19.70;57.90
38464;DHT22;24243;51.956;5.902;2023-02-22T17:36:32;19.70;57.80
38464;DHT22;24243;51.956;5.902;2023-02-22T17:38:58;19.80;57.80
38464;DHT22;24243;51.956;5.902;2023-02-22T17:41:24;19.80;57.80
38464;DHT22;24243;51.956;5.902;2023-02-22T17:43:50;19.80;57.80
38464;DHT22;24243;51.956;5.902;2023-02-22T17:46:17;19.80;57.80
38464;DHT22;24243;51.956;5.902;2023-02-22T17:48:44;19.80;57.90
38464;DHT22;24243;51.956;5.902;2023-02-22T17:51:10;19.80;57.90
38464;DHT22;24243;51.956;5.902;2023-02-22T17:53:36;19.80;57.90